createdAt,value
2019-03-13T00:02:30.203Z,58.59
2019-03-13T00:07:51.872Z,58.18
2019-03-13T00:13:13.279Z,58.16
2019-03-13T00:18:34.842Z,57.88
2019-03-13T00:23:55.791Z,58.13
2019-03-13T00:29:17.174Z,58.35
2019-03-13T00:34:38.279Z,58.79
2019-03-13T00:39:59.253Z,58.73
2019-03-13T00:45:20.212Z,58.97
2019-03-13T00:50:41.348Z,58.41
2019-03-13T00:56:02.383Z,58.73
2019-03-13T01:01:43.130Z,58.99
2019-03-13T01:07:07.015Z,58.85
2019-03-13T01:12:27.811Z,59.79
2019-03-13T01:17:48.862Z,60.16
2019-03-13T01:23:09.793Z,59.88
2019-03-13T01:28:31.190Z,59.95
2019-03-13T01:33:54.052Z,60.21
2019-03-13T01:39:15.214Z,60.14
2019-03-13T01:44:36.707Z,60.46
2019-03-13T01:49:58.282Z,59.85
2019-03-13T01:55:19.330Z,60.38
2019-03-13T02:00:40.490Z,60.38
2019-03-13T02:06:01.861Z,60.79
2019-03-13T02:11:22.786Z,60.19
2019-03-13T02:16:44.063Z,59.33
2019-03-13T02:22:05.380Z,59.30
2019-03-13T02:27:26.443Z,59.04
2019-03-13T02:32:47.628Z,58.65
2019-03-13T02:38:08.558Z,59.04
2019-03-13T02:43:29.908Z,58.53
2019-03-13T02:48:50.821Z,58.29
2019-03-13T02:54:12.286Z,58.20
2019-03-13T02:59:33.272Z,58.35
2019-03-13T03:04:55.972Z,57.77
2019-03-13T03:10:17.389Z,58.38
2019-03-13T03:15:38.722Z,58.46
2019-03-13T03:21:00.101Z,57.51
2019-03-13T03:26:21.150Z,58.76
2019-03-13T03:31:42.402Z,58.57
2019-03-13T03:37:03.922Z,58.98
2019-03-13T03:42:25.416Z,58.85
2019-03-13T03:47:46.541Z,58.36
2019-03-13T03:53:07.388Z,58.15
2019-03-13T03:58:29.791Z,57.18
2019-03-13T04:03:51.245Z,57.33
2019-03-13T04:09:12.557Z,57.41
2019-03-13T04:14:33.912Z,57.09
2019-03-13T04:19:54.833Z,56.93
2019-03-13T04:25:30.369Z,57.62
2019-03-13T04:30:51.338Z,57.42
2019-03-13T04:36:12.687Z,57.81
2019-03-13T04:41:33.629Z,57.28
2019-03-13T04:46:55.075Z,56.35
2019-03-13T04:52:16.282Z,56.49
2019-03-13T04:57:37.326Z,55.33
2019-03-13T05:02:58.437Z,56.16
2019-03-13T05:09:10.233Z,56.06
2019-03-13T05:14:32.861Z,56.34
2019-03-13T05:19:54.451Z,56.35
2019-03-13T05:25:15.669Z,56.64
2019-03-13T05:30:36.639Z,57.22
2019-03-13T05:35:57.955Z,56.59
2019-03-13T05:41:19.270Z,56.37
2019-03-13T05:46:40.488Z,56.49
2019-03-13T05:52:01.689Z,56.63
2019-03-13T05:57:22.563Z,56.40
2019-03-13T06:02:43.841Z,55.63
2019-03-13T06:08:05.091Z,55.96
2019-03-13T06:13:26.962Z,55.46
2019-03-13T06:18:48.112Z,56.11
2019-03-13T06:24:09.339Z,56.92
2019-03-13T06:29:31.919Z,54.97
2019-03-13T06:34:53.323Z,56.54
2019-03-13T06:40:14.652Z,57.10
2019-03-13T06:45:36.003Z,57.05
2019-03-13T06:50:57.356Z,56.78
2019-03-13T06:56:18.399Z,56.64
2019-03-13T07:02:04.878Z,56.53
2019-03-13T07:07:39.645Z,56.92
2019-03-13T07:13:20.106Z,55.62
2019-03-13T07:18:55.836Z,56.31
2019-03-13T07:24:42.552Z,56.33
2019-03-13T07:30:22.322Z,56.35
2019-03-13T07:36:17.913Z,55.41
2019-03-13T07:41:57.462Z,54.93
2019-03-13T07:47:41.009Z,54.46
2019-03-13T07:53:12.443Z,53.74
2019-03-13T07:58:55.872Z,52.37
2019-03-13T08:04:45.490Z,51.75
2019-03-13T08:10:26.880Z,51.23
2019-03-13T08:16:10.266Z,50.11
2019-03-13T08:21:56.805Z,49.75
2019-03-13T08:27:55.684Z,48.97
2019-03-13T08:33:27.350Z,48.85
2019-03-13T08:39:10.946Z,49.05
2019-03-13T08:44:50.209Z,49.10
2019-03-13T08:50:30.870Z,47.88
2019-03-13T08:55:59.245Z,48.18
2019-03-13T09:01:33.204Z,48.60
2019-03-13T09:07:23.014Z,47.29
2019-03-13T09:13:01.779Z,46.65
2019-03-13T09:18:51.295Z,46.61
2019-03-13T09:24:21.029Z,47.36
2019-03-13T09:30:07.523Z,46.68
2019-03-13T09:35:53.978Z,45.63
2019-03-13T09:41:23.964Z,45.03
2019-03-13T09:46:53.329Z,44.15
2019-03-13T09:52:43.197Z,43.45
2019-03-13T09:58:22.082Z,41.25
2019-03-13T10:04:02.784Z,39.87
2019-03-13T10:09:36.988Z,40.83
2019-03-13T10:15:03.382Z,40.46
2019-03-13T10:20:42.652Z,41.42
2019-03-13T10:26:29.543Z,40.17
2019-03-13T10:31:59.774Z,40.10
2019-03-13T10:37:38.821Z,40.28
2019-03-13T10:43:25.396Z,39.48
2019-03-13T10:49:04.738Z,39.44
2019-03-13T10:54:54.342Z,38.16
2019-03-13T11:00:38.226Z,38.12
2019-03-13T11:06:27.638Z,38.33
2019-03-13T11:11:55.093Z,39.20
2019-03-13T11:17:41.993Z,41.07
2019-03-13T11:23:12.814Z,39.68
2019-03-13T11:28:59.383Z,40.43
2019-03-13T11:34:42.872Z,39.51
2019-03-13T11:40:30.321Z,40.33
2019-03-13T11:46:14.160Z,39.34
2019-03-13T11:52:03.928Z,38.37
2019-03-13T11:57:50.657Z,37.20
2019-03-13T12:03:27.498Z,38.55
2019-03-13T12:09:23.155Z,39.51
2019-03-13T12:15:06.629Z,38.90
2019-03-13T12:20:45.923Z,39.13
2019-03-13T12:26:35.485Z,39.17
2019-03-13T12:32:15.466Z,38.22
2019-03-13T12:37:58.978Z,37.85
2019-03-13T12:43:29.075Z,38.95
2019-03-13T12:49:08.158Z,37.40
2019-03-13T12:54:36.741Z,40.26
2019-03-13T13:00:05.735Z,42.08
2019-03-13T13:05:42.435Z,42.41
2019-03-13T13:11:21.164Z,42.39
2019-03-13T13:16:59.183Z,41.83
2019-03-13T13:22:20.141Z,42.43
2019-03-13T13:27:41.901Z,42.00
2019-03-13T13:33:03.164Z,41.79
2019-03-13T13:38:24.223Z,41.72
2019-03-13T13:43:45.520Z,40.95
2019-03-13T13:49:06.580Z,41.67
2019-03-13T13:54:27.480Z,41.59
2019-03-13T13:59:49.213Z,41.47
2019-03-13T14:05:10.855Z,40.31
2019-03-13T14:10:31.932Z,41.33
2019-03-13T14:15:53.267Z,40.86
2019-03-13T14:21:14.367Z,41.09
2019-03-13T14:26:44.047Z,41.19
2019-03-13T14:32:05.531Z,41.18
2019-03-13T14:37:26.444Z,40.99
2019-03-13T14:42:48.809Z,41.12
2019-03-13T14:48:10.223Z,41.63
2019-03-13T14:53:31.311Z,41.76
2019-03-13T14:58:52.642Z,42.17
2019-03-13T15:04:13.833Z,42.24
2019-03-13T15:09:34.812Z,41.89
2019-03-13T15:14:55.820Z,42.48
2019-03-13T15:20:17.059Z,50.25
2019-03-13T15:25:38.068Z,51.50
2019-03-13T15:30:59.350Z,53.36
2019-03-13T15:36:20.800Z,54.53
2019-03-13T15:41:42.306Z,54.92
2019-03-13T15:47:03.719Z,56.65
2019-03-13T15:52:26.363Z,58.36
2019-03-13T15:57:47.760Z,58.07
2019-03-13T16:03:08.967Z,59.08
2019-03-13T16:08:30.267Z,59.22
2019-03-13T16:13:51.614Z,59.42
2019-03-13T16:19:14.305Z,59.57
2019-03-13T16:24:35.636Z,60.34
2019-03-13T16:29:57.111Z,59.85
2019-03-13T16:35:18.256Z,60.09
2019-03-13T16:40:39.764Z,60.60
2019-03-13T16:46:01.283Z,60.85
2019-03-13T16:51:22.684Z,61.47
2019-03-13T16:56:46.478Z,61.16
2019-03-13T17:02:08.052Z,61.58
2019-03-13T17:07:40.618Z,62.43
2019-03-13T17:13:05.156Z,63.54
2019-03-13T17:18:25.524Z,64.59
2019-03-13T17:23:46.778Z,65.67
2019-03-13T17:29:08.174Z,65.97
2019-03-13T17:34:30.351Z,66.08
2019-03-13T17:39:51.802Z,66.32
2019-03-13T17:45:15.412Z,65.86
2019-03-13T17:50:36.576Z,66.46
2019-03-13T17:55:57.631Z,66.40
2019-03-13T18:01:19.743Z,67.43
2019-03-13T18:06:40.567Z,67.15
2019-03-13T18:12:02.153Z,67.65
2019-03-13T18:17:23.122Z,67.66
2019-03-13T18:22:44.922Z,67.72
2019-03-13T18:28:05.967Z,67.69
2019-03-13T18:33:27.400Z,67.66
2019-03-13T18:38:48.223Z,67.50
2019-03-13T18:44:09.457Z,67.49
2019-03-13T18:49:30.449Z,67.55
2019-03-13T18:54:55.992Z,67.14
2019-03-13T19:00:22.553Z,67.26
2019-03-13T19:05:43.585Z,67.55
2019-03-13T19:11:05.521Z,67.72
2019-03-13T19:16:26.682Z,68.05
2019-03-13T19:21:48.004Z,68.68
2019-03-13T19:27:09.605Z,68.41
2019-03-13T19:32:30.902Z,68.55
2019-03-13T19:37:52.708Z,68.80
2019-03-13T19:43:14.026Z,69.14
2019-03-13T19:48:35.439Z,69.44
2019-03-13T19:53:56.861Z,69.21
2019-03-13T19:59:17.787Z,69.42
2019-03-13T20:04:47.381Z,69.72
2019-03-13T20:10:02.252Z,69.48
2019-03-13T20:15:24.092Z,69.74
2019-03-13T20:20:45.402Z,69.81
2019-03-13T20:26:06.567Z,69.92
2019-03-13T20:31:27.377Z,69.29
2019-03-13T20:36:49.100Z,69.66
2019-03-13T20:42:13.221Z,70.64
2019-03-13T20:47:34.775Z,70.76
2019-03-13T20:52:56.027Z,71.87
2019-03-13T20:58:17.245Z,71.91
2019-03-13T21:03:38.420Z,72.67
2019-03-13T21:08:59.540Z,72.89
2019-03-13T21:14:22.244Z,73.07
2019-03-13T21:19:43.153Z,72.84
2019-03-13T21:25:05.141Z,72.78
2019-03-13T21:30:26.750Z,73.84
2019-03-13T21:35:48.081Z,74.20
2019-03-13T21:41:09.660Z,74.38
2019-03-13T21:46:31.208Z,74.39
2019-03-13T21:51:52.447Z,73.41
2019-03-13T21:57:13.868Z,73.61
2019-03-13T22:02:36.532Z,73.53
2019-03-13T22:07:57.867Z,73.63
2019-03-13T22:13:18.837Z,73.28
2019-03-13T22:18:40.162Z,72.98
2019-03-13T22:24:01.470Z,72.32
2019-03-13T22:29:22.972Z,72.14
2019-03-13T22:34:43.900Z,71.73
2019-03-13T22:40:05.855Z,71.22
2019-03-13T22:45:26.624Z,70.86
2019-03-13T22:50:47.855Z,70.67
2019-03-13T22:56:09.440Z,71.19
2019-03-13T23:01:30.501Z,71.01
2019-03-13T23:06:51.755Z,70.84
2019-03-13T23:12:12.634Z,70.63
2019-03-13T23:17:33.786Z,70.27
2019-03-13T23:22:54.838Z,70.29
2019-03-13T23:28:16.754Z,70.64
2019-03-13T23:33:38.147Z,70.42
2019-03-13T23:38:59.378Z,70.30
2019-03-13T23:44:20.693Z,70.61
2019-03-13T23:49:41.833Z,70.67
2019-03-13T23:55:03.302Z,71.16
